Ackermanville, Pennsylvania
Current Conditions -  °F | °C
As of 2:51 AM on Friday 31 Oct 2014 (Local Time) from KABE Reporting Station
Clear Clear  
Wind Chill: 32°   Ceiling: Unl
Heat Index: 32°   Visibility: 10mi
Dew Point: 29°   Wind: 3mph
Humidity: 88%   Direction: 320°NW
Pressure: 30.03"   Gusts: NA
Location:  40.84°N, 75.22°W
Report Text: KABE 310651Z 32003KT 10SM CLR 00/M02 A3003 RMK AO2 SLP170 T00001017
Loading
Personal Weather Stations






























Interactive Weather Map
Tropical Storm Tracking
New forecast layout! Learn more

10-Day Weather Forecast

Advertisements
Track Severe Weather on mobile